sensor_id;sensor_type;location;lat;lon;timestamp;temperature;humidity
36372;DHT22;22398;51.346;12.372;2023-02-13T00:03:20;8.20;99.90
36372;DHT22;22398;51.346;12.372;2023-02-13T00:08:25;8.10;99.90
36372;DHT22;22398;51.346;12.372;2023-02-13T00:13:29;8.10;99.90
36372;DHT22;22398;51.346;12.372;2023-02-13T00:18:34;8.00;99.90
36372;DHT22;22398;51.346;12.372;2023-02-13T00:23:39;7.90;99.90
36372;DHT22;22398;51.346;12.372;2023-02-13T00:28:43;7.90;99.90
36372;DHT22;22398;51.346;12.372;2023-02-13T00:33:46;7.90;99.90
36372;DHT22;22398;51.346;12.372;2023-02-13T00:38:53;7.80;99.90
36372;DHT22;22398;51.346;12.372;2023-02-13T00:43:56;8.00;99.90
36372;DHT22;22398;51.346;12.372;2023-02-13T00:48:59;8.00;99.90
36372;DHT22;22398;51.346;12.372;2023-02-13T00:54:04;8.10;99.90
36372;DHT22;22398;51.346;12.372;2023-02-13T00:59:07;8.10;99.90
36372;DHT22;22398;51.346;12.372;2023-02-13T01:04:11;8.10;99.90
36372;DHT22;22398;51.346;12.372;2023-02-13T01:09:15;8.00;99.90
36372;DHT22;22398;51.346;12.372;2023-02-13T01:14:19;8.00;99.90
36372;DHT22;22398;51.346;12.372;2023-02-13T01:19:23;8.00;99.90
36372;DHT22;22398;51.346;12.372;2023-02-13T01:24:27;8.00;99.90
36372;DHT22;22398;51.346;12.372;2023-02-13T01:29:34;7.90;99.90
36372;DHT22;22398;51.346;12.372;2023-02-13T01:34:37;7.90;99.90
36372;DHT22;22398;51.346;12.372;2023-02-13T01:39:42;7.90;99.90
36372;DHT22;22398;51.346;12.372;2023-02-13T01:44:49;7.90;99.90
36372;DHT22;22398;51.346;12.372;2023-02-13T01:50:01;7.90;99.90
36372;DHT22;22398;51.346;12.372;2023-02-13T01:55:07;7.90;99.90
36372;DHT22;22398;51.346;12.372;2023-02-13T02:00:13;7.80;99.90
36372;DHT22;22398;51.346;12.372;2023-02-13T02:05:22;7.80;99.90
36372;DHT22;22398;51.346;12.372;2023-02-13T02:10:28;7.80;99.90
36372;DHT22;22398;51.346;12.372;2023-02-13T02:15:33;7.70;99.90
36372;DHT22;22398;51.346;12.372;2023-02-13T02:26:58;7.70;99.90
36372;DHT22;22398;51.346;12.372;2023-02-13T02:32:23;7.60;99.90
36372;DHT22;22398;51.346;12.372;2023-02-13T02:37:46;7.60;99.90
36372;DHT22;22398;51.346;12.372;2023-02-13T02:43:05;7.60;99.90
36372;DHT22;22398;51.346;12.372;2023-02-13T02:48:25;7.50;99.90
36372;DHT22;22398;51.346;12.372;2023-02-13T02:53:50;7.50;99.90
36372;DHT22;22398;51.346;12.372;2023-02-13T02:59:00;7.50;99.90
36372;DHT22;22398;51.346;12.372;2023-02-13T03:04:29;7.50;99.90
36372;DHT22;22398;51.346;12.372;2023-02-13T03:09:55;7.40;99.90
36372;DHT22;22398;51.346;12.372;2023-02-13T03:15:16;7.40;99.90
36372;DHT22;22398;51.346;12.372;2023-02-13T03:20:29;7.40;99.90
36372;DHT22;22398;51.346;12.372;2023-02-13T03:26:04;7.40;99.90
36372;DHT22;22398;51.346;12.372;2023-02-13T03:31:27;7.40;99.90
36372;DHT22;22398;51.346;12.372;2023-02-13T03:36:43;7.40;99.90
36372;DHT22;22398;51.346;12.372;2023-02-13T03:42:09;7.30;99.90
36372;DHT22;22398;51.346;12.372;2023-02-13T03:47:14;7.30;99.90
36372;DHT22;22398;51.346;12.372;2023-02-13T03:52:23;7.30;99.90
36372;DHT22;22398;51.346;12.372;2023-02-13T03:57:30;7.30;99.90
36372;DHT22;22398;51.346;12.372;2023-02-13T04:02:57;7.30;99.90
36372;DHT22;22398;51.346;12.372;2023-02-13T04:08:04;7.30;99.90
36372;DHT22;22398;51.346;12.372;2023-02-13T04:13:13;7.20;99.90
36372;DHT22;22398;51.346;12.372;2023-02-13T04:18:20;7.30;99.90
36372;DHT22;22398;51.346;12.372;2023-02-13T04:23:26;7.30;99.90
36372;DHT22;22398;51.346;12.372;2023-02-13T04:28:30;7.30;99.90
36372;DHT22;22398;51.346;12.372;2023-02-13T04:33:33;7.40;99.90
36372;DHT22;22398;51.346;12.372;2023-02-13T04:38:38;7.30;99.90
36372;DHT22;22398;51.346;12.372;2023-02-13T04:43:41;7.30;99.90
36372;DHT22;22398;51.346;12.372;2023-02-13T04:48:45;7.20;99.90
36372;DHT22;22398;51.346;12.372;2023-02-13T04:53:50;7.20;99.90
36372;DHT22;22398;51.346;12.372;2023-02-13T04:58:54;7.20;99.90
36372;DHT22;22398;51.346;12.372;2023-02-13T05:03:58;7.20;99.90
36372;DHT22;22398;51.346;12.372;2023-02-13T05:09:03;7.10;99.90
36372;DHT22;22398;51.346;12.372;2023-02-13T05:14:06;7.00;99.90
36372;DHT22;22398;51.346;12.372;2023-02-13T05:19:10;7.00;99.90
36372;DHT22;22398;51.346;12.372;2023-02-13T05:24:14;7.00;99.90
36372;DHT22;22398;51.346;12.372;2023-02-13T05:29:21;7.10;99.90
36372;DHT22;22398;51.346;12.372;2023-02-13T05:34:26;7.10;99.90
36372;DHT22;22398;51.346;12.372;2023-02-13T05:39:31;7.10;99.90
36372;DHT22;22398;51.346;12.372;2023-02-13T05:44:34;7.10;99.90
36372;DHT22;22398;51.346;12.372;2023-02-13T05:49:38;7.10;99.90
36372;DHT22;22398;51.346;12.372;2023-02-13T05:54:42;7.10;99.90
36372;DHT22;22398;51.346;12.372;2023-02-13T05:59:46;7.10;99.90
36372;DHT22;22398;51.346;12.372;2023-02-13T06:04:49;7.20;99.90
36372;DHT22;22398;51.346;12.372;2023-02-13T06:09:53;7.20;99.90
36372;DHT22;22398;51.346;12.372;2023-02-13T06:14:59;7.20;99.90
36372;DHT22;22398;51.346;12.372;2023-02-13T06:20:02;7.20;99.90
36372;DHT22;22398;51.346;12.372;2023-02-13T06:25:07;7.30;99.90
36372;DHT22;22398;51.346;12.372;2023-02-13T06:30:12;7.30;99.90
36372;DHT22;22398;51.346;12.372;2023-02-13T06:35:16;7.20;99.90
36372;DHT22;22398;51.346;12.372;2023-02-13T06:40:21;7.20;99.90
36372;DHT22;22398;51.346;12.372;2023-02-13T06:45:24;7.20;99.90
36372;DHT22;22398;51.346;12.372;2023-02-13T06:50:28;7.30;99.90
36372;DHT22;22398;51.346;12.372;2023-02-13T06:55:32;7.40;99.90
36372;DHT22;22398;51.346;12.372;2023-02-13T07:00:36;7.50;99.90
36372;DHT22;22398;51.346;12.372;2023-02-13T07:05:39;7.60;99.90
36372;DHT22;22398;51.346;12.372;2023-02-13T07:10:44;7.70;99.90
36372;DHT22;22398;51.346;12.372;2023-02-13T07:15:48;7.70;99.90
36372;DHT22;22398;51.346;12.372;2023-02-13T07:20:51;7.80;99.90
36372;DHT22;22398;51.346;12.372;2023-02-13T07:25:57;7.80;99.90
36372;DHT22;22398;51.346;12.372;2023-02-13T07:31:03;7.80;99.90
36372;DHT22;22398;51.346;12.372;2023-02-13T07:36:07;7.90;99.90
36372;DHT22;22398;51.346;12.372;2023-02-13T07:41:12;8.00;99.90
36372;DHT22;22398;51.346;12.372;2023-02-13T07:46:15;8.10;99.90
36372;DHT22;22398;51.346;12.372;2023-02-13T07:51:19;8.10;99.90
36372;DHT22;22398;51.346;12.372;2023-02-13T07:56:27;8.10;99.90
36372;DHT22;22398;51.346;12.372;2023-02-13T08:01:31;8.20;99.90
36372;DHT22;22398;51.346;12.372;2023-02-13T08:06:38;8.30;99.90
36372;DHT22;22398;51.346;12.372;2023-02-13T08:11:43;8.40;99.90
36372;DHT22;22398;51.346;12.372;2023-02-13T08:16:58;8.30;99.90
36372;DHT22;22398;51.346;12.372;2023-02-13T08:22:02;8.30;99.90
36372;DHT22;22398;51.346;12.372;2023-02-13T08:27:11;8.30;99.90
36372;DHT22;22398;51.346;12.372;2023-02-13T08:32:14;8.30;99.90
36372;DHT22;22398;51.346;12.372;2023-02-13T08:37:18;8.40;99.90
36372;DHT22;22398;51.346;12.372;2023-02-13T08:42:23;8.50;99.90
36372;DHT22;22398;51.346;12.372;2023-02-13T08:47:26;8.60;99.90
36372;DHT22;22398;51.346;12.372;2023-02-13T08:52:30;8.60;99.90
36372;DHT22;22398;51.346;12.372;2023-02-13T08:57:35;8.70;99.90
36372;DHT22;22398;51.346;12.372;2023-02-13T09:02:39;8.70;99.90
36372;DHT22;22398;51.346;12.372;2023-02-13T09:07:42;8.70;99.90
36372;DHT22;22398;51.346;12.372;2023-02-13T09:12:52;8.60;99.90
36372;DHT22;22398;51.346;12.372;2023-02-13T09:17:55;8.70;99.90
36372;DHT22;22398;51.346;12.372;2023-02-13T09:22:59;9.00;99.90
36372;DHT22;22398;51.346;12.372;2023-02-13T09:28:04;9.00;99.90
36372;DHT22;22398;51.346;12.372;2023-02-13T09:33:09;8.90;99.90
36372;DHT22;22398;51.346;12.372;2023-02-13T09:38:12;8.80;99.90
36372;DHT22;22398;51.346;12.372;2023-02-13T09:43:27;8.90;99.90
36372;DHT22;22398;51.346;12.372;2023-02-13T09:48:36;9.00;99.90
36372;DHT22;22398;51.346;12.372;2023-02-13T09:53:40;9.10;99.90
36372;DHT22;22398;51.346;12.372;2023-02-13T09:58:48;9.10;99.90
36372;DHT22;22398;51.346;12.372;2023-02-13T10:04:15;9.10;99.90
36372;DHT22;22398;51.346;12.372;2023-02-13T10:09:27;9.00;99.90
36372;DHT22;22398;51.346;12.372;2023-02-13T10:14:40;8.90;99.90
36372;DHT22;22398;51.346;12.372;2023-02-13T10:19:49;9.00;99.90
36372;DHT22;22398;51.346;12.372;2023-02-13T10:24:56;8.90;99.90
36372;DHT22;22398;51.346;12.372;2023-02-13T10:30:07;9.00;99.90
36372;DHT22;22398;51.346;12.372;2023-02-13T10:35:22;9.00;99.90
36372;DHT22;22398;51.346;12.372;2023-02-13T10:40:31;9.00;99.90
36372;DHT22;22398;51.346;12.372;2023-02-13T10:45:48;9.00;99.90
36372;DHT22;22398;51.346;12.372;2023-02-13T10:50:58;9.10;99.90
36372;DHT22;22398;51.346;12.372;2023-02-13T10:56:17;9.10;99.90
36372;DHT22;22398;51.346;12.372;2023-02-13T11:01:31;9.10;99.90
36372;DHT22;22398;51.346;12.372;2023-02-13T11:06:40;9.40;99.90
36372;DHT22;22398;51.346;12.372;2023-02-13T11:11:45;9.50;99.90
36372;DHT22;22398;51.346;12.372;2023-02-13T11:16:57;9.50;99.90
36372;DHT22;22398;51.346;12.372;2023-02-13T11:22:03;9.40;99.90
36372;DHT22;22398;51.346;12.372;2023-02-13T11:27:09;9.50;99.90
36372;DHT22;22398;51.346;12.372;2023-02-13T11:32:20;9.50;99.90
36372;DHT22;22398;51.346;12.372;2023-02-13T11:37:26;9.70;99.90
36372;DHT22;22398;51.346;12.372;2023-02-13T11:42:30;9.90;99.90
36372;DHT22;22398;51.346;12.372;2023-02-13T11:47:40;10.30;99.90
36372;DHT22;22398;51.346;12.372;2023-02-13T11:52:52;10.50;99.90
36372;DHT22;22398;51.346;12.372;2023-02-13T11:57:57;10.30;99.90
36372;DHT22;22398;51.346;12.372;2023-02-13T12:03:08;10.30;99.90
36372;DHT22;22398;51.346;12.372;2023-02-13T12:08:27;10.30;99.90
36372;DHT22;22398;51.346;12.372;2023-02-13T12:13:32;10.20;99.90
36372;DHT22;22398;51.346;12.372;2023-02-13T12:18:41;10.10;99.90
36372;DHT22;22398;51.346;12.372;2023-02-13T12:23:51;10.10;99.90
36372;DHT22;22398;51.346;12.372;2023-02-13T12:29:09;10.00;99.90
36372;DHT22;22398;51.346;12.372;2023-02-13T12:34:52;10.10;99.90
36372;DHT22;22398;51.346;12.372;2023-02-13T12:40:22;10.10;99.90
36372;DHT22;22398;51.346;12.372;2023-02-13T12:45:33;10.00;99.90
36372;DHT22;22398;51.346;12.372;2023-02-13T12:50:50;10.10;99.80
36372;DHT22;22398;51.346;12.372;2023-02-13T12:56:06;10.10;99.70
36372;DHT22;22398;51.346;12.372;2023-02-13T13:01:22;10.00;99.80
36372;DHT22;22398;51.346;12.372;2023-02-13T13:06:42;10.00;99.70
36372;DHT22;22398;51.346;12.372;2023-02-13T13:12:00;10.10;99.70
36372;DHT22;22398;51.346;12.372;2023-02-13T13:17:13;9.90;99.50
36372;DHT22;22398;51.346;12.372;2023-02-13T13:22:22;9.80;99.40
36372;DHT22;22398;51.346;12.372;2023-02-13T13:27:31;9.60;99.40
36372;DHT22;22398;51.346;12.372;2023-02-13T13:32:36;9.60;99.50
36372;DHT22;22398;51.346;12.372;2023-02-13T13:37:44;9.50;99.60
36372;DHT22;22398;51.346;12.372;2023-02-13T13:42:50;9.50;99.70
36372;DHT22;22398;51.346;12.372;2023-02-13T13:48:08;9.50;99.80
36372;DHT22;22398;51.346;12.372;2023-02-13T13:53:18;9.50;99.90
36372;DHT22;22398;51.346;12.372;2023-02-13T13:58:32;9.50;99.90
36372;DHT22;22398;51.346;12.372;2023-02-13T14:03:36;9.50;99.90
36372;DHT22;22398;51.346;12.372;2023-02-13T14:08:58;9.50;99.90
36372;DHT22;22398;51.346;12.372;2023-02-13T14:19:43;9.50;99.90
36372;DHT22;22398;51.346;12.372;2023-02-13T14:24:50;9.60;99.90
36372;DHT22;22398;51.346;12.372;2023-02-13T14:29:55;9.60;99.90
36372;DHT22;22398;51.346;12.372;2023-02-13T14:35:02;9.60;99.90
36372;DHT22;22398;51.346;12.372;2023-02-13T14:40:41;9.50;99.90
36372;DHT22;22398;51.346;12.372;2023-02-13T14:45:48;9.30;99.80
36372;DHT22;22398;51.346;12.372;2023-02-13T14:50:54;9.20;99.90
36372;DHT22;22398;51.346;12.372;2023-02-13T14:56:06;9.30;99.90
36372;DHT22;22398;51.346;12.372;2023-02-13T15:01:20;9.10;99.90
36372;DHT22;22398;51.346;12.372;2023-02-13T15:06:27;9.00;99.90
36372;DHT22;22398;51.346;12.372;2023-02-13T15:11:35;9.00;99.90
36372;DHT22;22398;51.346;12.372;2023-02-13T15:16:38;9.00;99.90
36372;DHT22;22398;51.346;12.372;2023-02-13T15:21:47;9.00;99.90
36372;DHT22;22398;51.346;12.372;2023-02-13T15:26:58;9.00;99.90
36372;DHT22;22398;51.346;12.372;2023-02-13T15:32:16;9.00;99.90
36372;DHT22;22398;51.346;12.372;2023-02-13T15:37:21;9.00;99.90
36372;DHT22;22398;51.346;12.372;2023-02-13T15:42:27;8.90;99.90
36372;DHT22;22398;51.346;12.372;2023-02-13T15:47:32;8.80;99.90
36372;DHT22;22398;51.346;12.372;2023-02-13T15:52:38;8.70;99.90
36372;DHT22;22398;51.346;12.372;2023-02-13T15:57:43;8.60;99.90
36372;DHT22;22398;51.346;12.372;2023-02-13T16:02:47;8.50;99.90
36372;DHT22;22398;51.346;12.372;2023-02-13T16:07:54;8.50;99.90
36372;DHT22;22398;51.346;12.372;2023-02-13T16:13:02;8.40;99.90
36372;DHT22;22398;51.346;12.372;2023-02-13T16:18:17;8.30;99.90
36372;DHT22;22398;51.346;12.372;2023-02-13T16:23:20;8.20;99.90
36372;DHT22;22398;51.346;12.372;2023-02-13T16:28:26;8.20;99.90
36372;DHT22;22398;51.346;12.372;2023-02-13T16:33:33;8.10;99.90
36372;DHT22;22398;51.346;12.372;2023-02-13T16:38:39;8.10;99.90
36372;DHT22;22398;51.346;12.372;2023-02-13T16:43:46;8.10;99.90
36372;DHT22;22398;51.346;12.372;2023-02-13T16:54:35;8.00;99.90
36372;DHT22;22398;51.346;12.372;2023-02-13T16:59:55;8.00;99.90
36372;DHT22;22398;51.346;12.372;2023-02-13T17:05:15;8.00;99.90
36372;DHT22;22398;51.346;12.372;2023-02-13T17:10:21;8.00;99.90
36372;DHT22;22398;51.346;12.372;2023-02-13T17:15:30;8.00;99.90
36372;DHT22;22398;51.346;12.372;2023-02-13T17:20:33;7.90;99.90
36372;DHT22;22398;51.346;12.372;2023-02-13T17:25:37;7.90;99.90
36372;DHT22;22398;51.346;12.372;2023-02-13T17:30:43;7.80;99.90
36372;DHT22;22398;51.346;12.372;2023-02-13T17:35:47;7.90;99.90
36372;DHT22;22398;51.346;12.372;2023-02-13T17:40:50;7.90;99.90
36372;DHT22;22398;51.346;12.372;2023-02-13T17:45:55;7.90;99.90
36372;DHT22;22398;51.346;12.372;2023-02-13T17:51:02;7.80;99.90
36372;DHT22;22398;51.346;12.372;2023-02-13T17:56:06;7.80;99.90
36372;DHT22;22398;51.346;12.372;2023-02-13T18:01:10;7.80;99.90
36372;DHT22;22398;51.346;12.372;2023-02-13T18:06:14;7.80;99.90
36372;DHT22;22398;51.346;12.372;2023-02-13T18:11:17;7.80;99.90
36372;DHT22;22398;51.346;12.372;2023-02-13T18:16:22;7.70;99.90
36372;DHT22;22398;51.346;12.372;2023-02-13T18:21:26;7.70;99.90
36372;DHT22;22398;51.346;12.372;2023-02-13T18:26:30;7.60;99.90
36372;DHT22;22398;51.346;12.372;2023-02-13T18:31:37;7.50;99.90
36372;DHT22;22398;51.346;12.372;2023-02-13T18:36:41;7.60;99.90
36372;DHT22;22398;51.346;12.372;2023-02-13T18:41:45;7.50;99.90
36372;DHT22;22398;51.346;12.372;2023-02-13T18:46:49;7.40;99.90
36372;DHT22;22398;51.346;12.372;2023-02-13T18:51:53;7.10;99.90
36372;DHT22;22398;51.346;12.372;2023-02-13T18:56:56;6.80;99.90
36372;DHT22;22398;51.346;12.372;2023-02-13T19:02:01;6.50;99.90
36372;DHT22;22398;51.346;12.372;2023-02-13T19:07:05;6.20;99.90
36372;DHT22;22398;51.346;12.372;2023-02-13T19:12:08;5.90;99.90
36372;DHT22;22398;51.346;12.372;2023-02-13T19:17:13;5.70;99.90
36372;DHT22;22398;51.346;12.372;2023-02-13T19:22:17;5.50;99.90
36372;DHT22;22398;51.346;12.372;2023-02-13T19:27:20;5.30;99.90
36372;DHT22;22398;51.346;12.372;2023-02-13T19:32:25;5.10;99.90
36372;DHT22;22398;51.346;12.372;2023-02-13T19:37:28;5.00;99.90
36372;DHT22;22398;51.346;12.372;2023-02-13T19:42:45;4.90;99.90
36372;DHT22;22398;51.346;12.372;2023-02-13T19:47:49;4.80;99.90
36372;DHT22;22398;51.346;12.372;2023-02-13T19:52:54;4.60;99.90
36372;DHT22;22398;51.346;12.372;2023-02-13T19:57:58;4.60;99.90
36372;DHT22;22398;51.346;12.372;2023-02-13T20:03:03;4.50;99.90
36372;DHT22;22398;51.346;12.372;2023-02-13T20:08:06;4.40;99.90
36372;DHT22;22398;51.346;12.372;2023-02-13T20:13:10;4.40;99.90
36372;DHT22;22398;51.346;12.372;2023-02-13T20:18:14;4.40;99.90
36372;DHT22;22398;51.346;12.372;2023-02-13T20:23:20;4.30;99.90
36372;DHT22;22398;51.346;12.372;2023-02-13T20:28:23;4.30;99.90
36372;DHT22;22398;51.346;12.372;2023-02-13T20:33:28;4.30;99.90
36372;DHT22;22398;51.346;12.372;2023-02-13T20:38:31;4.10;99.90
36372;DHT22;22398;51.346;12.372;2023-02-13T20:43:36;4.10;99.90
36372;DHT22;22398;51.346;12.372;2023-02-13T20:48:42;4.00;99.90
36372;DHT22;22398;51.346;12.372;2023-02-13T20:53:46;3.90;99.90
36372;DHT22;22398;51.346;12.372;2023-02-13T20:58:51;3.90;99.90
36372;DHT22;22398;51.346;12.372;2023-02-13T21:03:56;3.90;99.90
36372;DHT22;22398;51.346;12.372;2023-02-13T21:09:00;4.00;99.90
36372;DHT22;22398;51.346;12.372;2023-02-13T21:14:04;4.00;99.90
36372;DHT22;22398;51.346;12.372;2023-02-13T21:19:12;4.10;99.90
36372;DHT22;22398;51.346;12.372;2023-02-13T21:24:18;4.30;99.90
36372;DHT22;22398;51.346;12.372;2023-02-13T21:29:21;4.40;99.90
36372;DHT22;22398;51.346;12.372;2023-02-13T21:34:28;4.60;99.90
36372;DHT22;22398;51.346;12.372;2023-02-13T21:39:32;4.70;99.90
36372;DHT22;22398;51.346;12.372;2023-02-13T21:44:37;4.70;99.90
36372;DHT22;22398;51.346;12.372;2023-02-13T21:49:41;4.90;99.90
36372;DHT22;22398;51.346;12.372;2023-02-13T21:54:44;5.00;99.90
36372;DHT22;22398;51.346;12.372;2023-02-13T21:59:48;5.20;99.90
36372;DHT22;22398;51.346;12.372;2023-02-13T22:04:52;5.40;99.90
36372;DHT22;22398;51.346;12.372;2023-02-13T22:09:56;5.50;99.90
36372;DHT22;22398;51.346;12.372;2023-02-13T22:14:59;5.60;99.90
36372;DHT22;22398;51.346;12.372;2023-02-13T22:20:05;5.70;99.90
36372;DHT22;22398;51.346;12.372;2023-02-13T22:25:08;5.90;99.90
36372;DHT22;22398;51.346;12.372;2023-02-13T22:30:12;6.00;99.90
36372;DHT22;22398;51.346;12.372;2023-02-13T22:35:17;6.10;99.90
36372;DHT22;22398;51.346;12.372;2023-02-13T22:40:20;6.20;99.90
36372;DHT22;22398;51.346;12.372;2023-02-13T22:45:24;6.30;99.90
36372;DHT22;22398;51.346;12.372;2023-02-13T22:50:29;6.30;99.90
36372;DHT22;22398;51.346;12.372;2023-02-13T22:55:33;6.40;99.90
36372;DHT22;22398;51.346;12.372;2023-02-13T23:00:37;6.40;99.90
36372;DHT22;22398;51.346;12.372;2023-02-13T23:05:42;6.40;99.90
36372;DHT22;22398;51.346;12.372;2023-02-13T23:10:45;6.40;99.90
36372;DHT22;22398;51.346;12.372;2023-02-13T23:16:11;6.40;99.90
36372;DHT22;22398;51.346;12.372;2023-02-13T23:21:17;6.30;99.90
36372;DHT22;22398;51.346;12.372;2023-02-13T23:26:20;6.30;99.90
36372;DHT22;22398;51.346;12.372;2023-02-13T23:31:24;6.30;99.90
36372;DHT22;22398;51.346;12.372;2023-02-13T23:36:29;6.10;99.90
36372;DHT22;22398;51.346;12.372;2023-02-13T23:41:32;6.10;99.90
36372;DHT22;22398;51.346;12.372;2023-02-13T23:46:36;6.00;99.90
36372;DHT22;22398;51.346;12.372;2023-02-13T23:51:40;6.00;99.90
36372;DHT22;22398;51.346;12.372;2023-02-13T23:56:44;5.90;99.90
